CheckWX is a tool to help pilots better visualize weather data.  It is not intended as a substitute for an official pre-flight weather briefing.

00:17:25 UTC

KELM METAR
Elmira / Corning Regional Airport
Elmira/Corning, New York, USA
Current

1 hour ago

KELM 272253Z AUTO 19014G18KT 10SM CLR 26/16 A3011 RMK AO2 SLP188 T02610156
Observed
May-27 @ 22:53 UTC
Wind
  • 190° at 14 KTS
  • Gusting to 18 KTS
Visibility
Flight Rules
VFR
Cloud Levels
  • Clear skies
Temperature
26°C / 79°F
Dewpoint
16°C / 61°F
Humidity
54%
Altimeter
30.11" Hg
Pressure
1019.62 hPa
Previous

2 hours ago

KELM 272153Z AUTO 21012KT 10SM FEW042 26/16 A3011 RMK AO2 SLP192 T02610161
Observed
May-27 @ 21:53 UTC
Wind
  • 210° at 12 KTS
Visibility
Flight Rules
VFR
Cloud Levels
  • Few at 4,200' AGL
Temperature
26°C / 79°F
Dewpoint
16°C / 61°F
Humidity
54%
Altimeter
30.11" Hg
Pressure
1019.62 hPa
Previous

3 hours ago

KELM 272053Z AUTO 22013KT 10SM CLR 27/16 A3011 RMK AO2 SLP191 T02720161 56007
Observed
May-27 @ 20:53 UTC
Wind
  • 220° at 13 KTS
Visibility
Flight Rules
VFR
Cloud Levels
  • Clear skies
Temperature
27°C / 81°F
Dewpoint
16°C / 61°F
Humidity
51%
Altimeter
30.11" Hg
Pressure
1019.62 hPa